Main page
METAR-TAF:

METAR-TAF

Airports :

Cascais Municipal Aerodrome

Cascais, Portugal

latitude: 38-43-32N, longitude: 009-21-19W, elevation: 99 m

Current weather observation

The report was made 7 hours and 37 minutes ago, at 20:00 UTC
Wind 9 kt from the North
Temperature 16°C
Humidity 82%
Pressure 1013 hPa
Visibility 10 km or more
Few clouds at a height of 1800 ft
Scattered clouds at a height of 4000 ft

METAR: LPCS 262000Z 01009KT 9999 FEW018 SCT040 16/13 Q1013

Time: 04:37 (03:37 UTC)


TAF: missing

Weather observations and forecasts of more than 4000 airports (METAR and TAF reports).

The available stations are represented by yellow and red dots on the map.

Hover mouse over dot to see the name of the station.

Then click to see weather observations and forecasts.

To change the map : click on the green buttons with a black cross to zoom in, on the green button with a dash to zoom out, or on the green arrows for adjacent maps.


METAR-TAF: